Time;durP1;ratioP1;P1;durP2;ratioP2;P2;SDS_P1;SDS_P2;PMS_P1;PMS_P2;Temp;Humidity;BMP_temperature;BMP_pressure;BME280_temperature;BME280_humidity;BME280_pressure;Samples;Min_cycle;Max_cycle;Signal;HPM_P1;HPM_P2
2022/04/01 00:01:48;;;;;;;4.80;0.47;;;;;;;;;;4974101;28;20031;-34
2022/04/01 00:04:14;;;;;;;0.25;0.25;;;;;;;;;;4975923;28;20089;-35
2022/04/01 00:06:39;;;;;;;0.30;0.30;;;;;;;;;;4976059;28;20039;-34
2022/04/01 00:09:05;;;;;;;0.40;0.40;;;;;;;;;;4975138;28;20015;-35
2022/04/01 00:11:30;;;;;;;0.75;0.25;;;;;;;;;;4975822;28;20393;-35
2022/04/01 00:13:56;;;;;;;1.42;0.30;;;;;;;;;;4976256;28;20055;-34
2022/04/01 00:16:21;;;;;;;0.30;0.30;;;;;;;;;;4975839;28;20482;-35
2022/04/01 00:18:47;;;;;;;0.45;0.30;;;;;;;;;;4975920;28;20030;-35
2022/04/01 00:21:12;;;;;;;0.40;0.40;;;;;;;;;;4975789;28;20034;-35
2022/04/01 00:23:37;;;;;;;0.50;0.40;;;;;;;;;;4975809;28;20018;-35
2022/04/01 00:26:03;;;;;;;0.60;0.50;;;;;;;;;;4975963;28;20149;-35
2022/04/01 00:28:28;;;;;;;0.65;0.43;;;;;;;;;;4975938;28;20346;-35
2022/04/01 00:30:54;;;;;;;1.65;0.85;;;;;;;;;;4975634;28;20031;-36
2022/04/01 00:33:20;;;;;;;1.90;0.47;;;;;;;;;;4975526;28;20034;-35
2022/04/01 00:35:46;;;;;;;0.75;0.52;;;;;;;;;;4975589;28;20035;-35
2022/04/01 00:38:11;;;;;;;1.17;0.43;;;;;;;;;;4975466;28;20025;-35
2022/04/01 00:40:37;;;;;;;2.15;0.50;;;;;;;;;;4974108;28;20042;-35
2022/04/01 00:43:03;;;;;;;0.30;0.30;;;;;;;;;;4975333;28;20151;-35
2022/04/01 00:45:28;;;;;;;1.23;0.70;;;;;;;;;;4975559;28;20098;-35
2022/04/01 00:48:01;;;;;;;0.30;0.30;;;;;;;;;;4975310;28;20027;-35
2022/04/01 00:50:27;;;;;;;0.57;0.50;;;;;;;;;;4973981;28;20034;-35
2022/04/01 00:52:53;;;;;;;0.68;0.40;;;;;;;;;;4975289;28;20019;-35
2022/04/01 00:55:19;;;;;;;0.47;0.47;;;;;;;;;;4975100;28;20041;-35
2022/04/01 00:57:46;;;;;;;0.65;0.65;;;;;;;;;;4973952;28;20106;-34
2022/04/01 01:00:12;;;;;;;0.57;0.47;;;;;;;;;;4975223;28;20456;-35
2022/04/01 01:02:39;;;;;;;0.22;0.20;;;;;;;;;;4975168;28;20054;-35
2022/04/01 01:05:04;;;;;;;0.52;0.43;;;;;;;;;;4975073;28;20043;-35
2022/04/01 01:07:30;;;;;;;0.38;0.30;;;;;;;;;;4973644;28;20077;-35
2022/04/01 01:09:57;;;;;;;0.50;0.50;;;;;;;;;;4975116;28;20031;-35
2022/04/01 01:12:24;;;;;;;0.52;0.52;;;;;;;;;;4974239;28;20372;-36
2022/04/01 01:14:50;;;;;;;0.50;0.50;;;;;;;;;;4974664;28;20104;-35
2022/04/01 01:17:15;;;;;;;0.45;0.45;;;;;;;;;;4975006;28;20018;-35
2022/04/01 01:19:41;;;;;;;0.32;0.20;;;;;;;;;;4973544;28;20160;-35
2022/04/01 01:22:08;;;;;;;0.70;0.70;;;;;;;;;;4973397;28;20022;-35
2022/04/01 01:24:39;;;;;;;0.35;0.35;;;;;;;;;;4973277;28;20081;-35
2022/04/01 01:27:08;;;;;;;1.02;0.50;;;;;;;;;;4973431;28;20161;-35
2022/04/01 01:29:37;;;;;;;1.40;0.60;;;;;;;;;;4974694;28;20027;-35
2022/04/01 01:32:04;;;;;;;0.30;0.30;;;;;;;;;;4974766;28;20039;-35
2022/04/01 01:34:32;;;;;;;3.83;0.50;;;;;;;;;;4973152;28;20516;-35
2022/04/01 01:36:58;;;;;;;0.22;0.22;;;;;;;;;;4974443;28;20098;-35
2022/04/01 01:39:23;;;;;;;0.68;0.32;;;;;;;;;;4974362;28;20428;-35
2022/04/01 01:41:49;;;;;;;1.38;0.47;;;;;;;;;;4972915;28;20046;-35
2022/04/01 01:44:16;;;;;;;0.60;0.32;;;;;;;;;;4972925;28;20041;-35
2022/04/01 01:46:42;;;;;;;0.82;0.65;;;;;;;;;;4956986;28;20041;-35
2022/04/01 01:49:08;;;;;;;1.23;0.40;;;;;;;;;;4973025;28;20027;-35
2022/04/01 01:57:02;;;;;;;0.47;0.47;;;;;;;;;;4974129;28;20042;-35
2022/04/01 01:59:27;;;;;;;0.25;0.25;;;;;;;;;;4972680;28;20018;-35
2022/04/01 02:01:53;;;;;;;0.65;0.43;;;;;;;;;;4972779;28;20551;-35
2022/04/01 02:04:22;;;;;;;0.90;0.75;;;;;;;;;;4973770;28;20153;-35
2022/04/01 02:06:51;;;;;;;0.30;0.30;;;;;;;;;;4972595;28;20034;-35
2022/04/01 02:09:17;;;;;;;0.57;0.40;;;;;;;;;;4972592;28;20023;-35
2022/04/01 02:11:43;;;;;;;0.85;0.57;;;;;;;;;;4973746;28;20074;-35
2022/04/01 02:14:09;;;;;;;3.65;0.68;;;;;;;;;;4972565;28;20481;-35
2022/04/01 02:16:35;;;;;;;3.13;0.50;;;;;;;;;;4973658;28;20507;-34
2022/04/01 02:19:00;;;;;;;0.73;0.30;;;;;;;;;;4972424;28;20030;-35
2022/04/01 02:21:27;;;;;;;0.57;0.20;;;;;;;;;;4972252;28;20027;-34
2022/04/01 02:23:54;;;;;;;1.38;0.65;;;;;;;;;;4972022;28;20108;-35
2022/04/01 02:26:22;;;;;;;0.47;0.43;;;;;;;;;;4972172;28;20049;-35
2022/04/01 02:28:48;;;;;;;0.80;0.68;;;;;;;;;;4973503;28;20019;-35
2022/04/01 02:31:14;;;;;;;5.05;0.82;;;;;;;;;;4972062;28;20041;-35
2022/04/01 02:33:59;;;;;;;0.88;0.70;;;;;;;;;;4973700;28;20038;-35
2022/04/01 02:36:24;;;;;;;1.00;0.60;;;;;;;;;;4972160;28;20054;-35
2022/04/01 02:38:50;;;;;;;1.08;0.80;;;;;;;;;;4972038;28;20462;-35
2022/04/01 02:41:18;;;;;;;0.98;0.55;;;;;;;;;;4971663;28;20037;-35
2022/04/01 02:43:43;;;;;;;1.45;0.80;;;;;;;;;;4971952;28;20027;-35
2022/04/01 02:46:10;;;;;;;1.10;0.77;;;;;;;;;;4972011;28;20047;-35
2022/04/01 02:48:45;;;;;;;1.92;1.00;;;;;;;;;;4971852;28;20027;-35
2022/04/01 02:51:29;;;;;;;0.90;0.90;;;;;;;;;;4973345;28;20166;-35
2022/04/01 02:54:03;;;;;;;2.10;0.88;;;;;;;;;;4956677;28;20035;-35
2022/04/01 02:56:30;;;;;;;2.83;0.60;;;;;;;;;;4971718;28;20031;-35
2022/04/01 02:58:55;;;;;;;0.82;0.60;;;;;;;;;;4971743;28;20553;-35
2022/04/01 03:01:22;;;;;;;1.50;0.70;;;;;;;;;;4971583;28;20489;-35
2022/04/01 03:03:47;;;;;;;1.02;0.73;;;;;;;;;;4971626;28;20038;-35
2022/04/01 03:06:16;;;;;;;1.02;0.50;;;;;;;;;;4955854;28;20378;-35
2022/04/01 03:08:43;;;;;;;1.08;0.60;;;;;;;;;;4971583;28;20019;-35
2022/04/01 03:11:09;;;;;;;0.40;0.38;;;;;;;;;;4971539;28;20035;-35
2022/04/01 03:13:35;;;;;;;0.60;0.50;;;;;;;;;;4971517;28;20022;-35
2022/04/01 03:16:19;;;;;;;0.57;0.30;;;;;;;;;;4973005;28;20086;-35
2022/04/01 03:18:57;;;;;;;2.15;0.40;;;;;;;;;;4971510;28;20081;-35
2022/04/01 03:21:24;;;;;;;0.32;0.32;;;;;;;;;;4972596;28;20035;-35
2022/04/01 03:23:50;;;;;;;1.27;1.17;;;;;;;;;;4972543;28;20031;-35
2022/04/01 03:26:18;;;;;;;1.48;0.43;;;;;;;;;;4971418;28;20031;-35
2022/04/01 03:29:02;;;;;;;0.20;0.20;;;;;;;;;;4972993;28;20085;-35
2022/04/01 03:31:29;;;;;;;0.52;0.40;;;;;;;;;;4971216;28;20053;-35
2022/04/01 03:33:56;;;;;;;0.93;0.43;;;;;;;;;;4971312;28;20469;-35
2022/04/01 03:36:23;;;;;;;1.15;0.65;;;;;;;;;;4972446;28;20023;-35
2022/04/01 03:38:51;;;;;;;1.33;0.52;;;;;;;;;;4975336;28;20085;-35
2022/04/01 03:41:24;;;;;;;0.47;0.38;;;;;;;;;;4974929;28;20065;-35
2022/04/01 03:43:52;;;;;;;2.38;0.60;;;;;;;;;;4975237;28;20035;-35
2022/04/01 03:46:19;;;;;;;1.02;0.75;;;;;;;;;;4975080;28;20488;-35
2022/04/01 03:48:48;;;;;;;1.20;0.90;;;;;;;;;;4975222;28;20081;-34
2022/04/01 03:51:19;;;;;;;0.95;0.63;;;;;;;;;;4974971;28;20472;-36
2022/04/01 03:53:57;;;;;;;2.65;1.05;;;;;;;;;;4975126;28;20493;-35
2022/04/01 03:56:34;;;;;;;2.47;1.05;;;;;;;;;;4975017;28;20589;-34
2022/04/01 03:59:18;;;;;;;8.00;1.65;;;;;;;;;;4976461;28;20046;-35
2022/04/01 04:02:03;;;;;;;4.13;1.27;;;;;;;;;;4976280;28;20046;-35
2022/04/01 04:04:29;;;;;;;8.27;2.25;;;;;;;;;;4974699;28;20481;-35
2022/04/01 04:06:57;;;;;;;4.43;1.67;;;;;;;;;;4974821;28;20130;-34
2022/04/01 04:09:24;;;;;;;3.83;1.33;;;;;;;;;;4974778;28;20701;-35
2022/04/01 04:11:49;;;;;;;0.40;0.32;;;;;;;;;;4974756;28;20026;-35
2022/04/01 04:14:21;;;;;;;1.27;0.60;;;;;;;;;;4974614;28;20065;-35
2022/04/01 04:16:47;;;;;;;0.90;0.55;;;;;;;;;;4974696;28;20054;-35
2022/04/01 04:19:13;;;;;;;0.75;0.55;;;;;;;;;;4974921;28;20054;-35
2022/04/01 04:21:58;;;;;;;1.73;0.65;;;;;;;;;;4974406;28;20035;-35
2022/04/01 04:24:30;;;;;;;0.45;0.32;;;;;;;;;;4974457;28;20077;-35
2022/04/01 04:27:02;;;;;;;0.60;0.40;;;;;;;;;;4958350;28;20038;-35
2022/04/01 04:29:30;;;;;;;1.13;0.50;;;;;;;;;;4974323;28;20133;-35
2022/04/01 04:32:23;;;;;;;0.80;0.70;;;;;;;;;;4974472;28;20025;-35
2022/04/01 04:34:50;;;;;;;0.65;0.40;;;;;;;;;;4974355;28;20038;-35
2022/04/01 04:37:20;;;;;;;0.40;0.40;;;;;;;;;;4958258;28;20468;-35
2022/04/01 04:39:49;;;;;;;0.40;0.40;;;;;;;;;;4974236;28;20027;-36
2022/04/01 04:42:15;;;;;;;0.50;0.40;;;;;;;;;;4975291;28;20113;-35
2022/04/01 04:44:42;;;;;;;0.30;0.30;;;;;;;;;;4974099;28;20089;-35
2022/04/01 04:47:12;;;;;;;0.57;0.57;;;;;;;;;;4974033;28;20263;-35
2022/04/01 04:49:41;;;;;;;4.03;0.55;;;;;;;;;;4975126;28;20046;-35
2022/04/01 04:52:07;;;;;;;0.93;0.50;;;;;;;;;;4973987;28;20055;-34
2022/04/01 04:54:41;;;;;;;5.32;0.80;;;;;;;;;;4974028;28;20074;-35
2022/04/01 04:57:33;;;;;;;0.65;0.40;;;;;;;;;;4973876;28;20038;-35
2022/04/01 05:00:02;;;;;;;0.63;0.40;;;;;;;;;;4974128;28;20059;-35
2022/04/01 05:03:06;;;;;;;0.28;0.28;;;;;;;;;;4972891;28;20039;-35
2022/04/01 05:05:39;;;;;;;0.68;0.60;;;;;;;;;;4973611;28;20065;-35
2022/04/01 05:08:35;;;;;;;0.57;0.40;;;;;;;;;;4974975;28;20401;-35
2022/04/01 05:11:32;;;;;;;3.35;0.77;;;;;;;;;;4974989;28;20033;-35
2022/04/01 05:14:07;;;;;;;1.08;0.40;;;;;;;;;;4973657;28;20081;-35
2022/04/01 05:16:41;;;;;;;0.50;0.47;;;;;;;;;;4973472;28;20429;-35
2022/04/01 05:19:12;;;;;;;0.50;0.40;;;;;;;;;;4973496;28;20097;-35
2022/04/01 05:22:00;;;;;;;0.50;0.50;;;;;;;;;;4973396;28;20086;-35
2022/04/01 05:24:46;;;;;;;0.85;0.60;;;;;;;;;;4973194;28;20089;-35
2022/04/01 05:27:18;;;;;;;0.60;0.40;;;;;;;;;;4974360;28;20046;-35
2022/04/01 05:30:18;;;;;;;0.85;0.85;;;;;;;;;;4971594;28;20053;-35
2022/04/01 05:33:15;;;;;;;0.55;0.43;;;;;;;;;;4973271;28;20062;-35
2022/04/01 05:35:43;;;;;;;0.80;0.43;;;;;;;;;;4974401;28;20035;-35
2022/04/01 05:38:11;;;;;;;0.85;0.38;;;;;;;;;;4973125;28;20044;-35
2022/04/01 05:40:38;;;;;;;0.30;0.30;;;;;;;;;;4973048;28;20047;-34
2022/04/01 05:43:06;;;;;;;0.30;0.30;;;;;;;;;;4972948;28;20473;-35
2022/04/01 05:45:35;;;;;;;0.20;0.20;;;;;;;;;;4974185;28;20047;-35
2022/04/01 05:48:08;;;;;;;0.40;0.40;;;;;;;;;;4972951;28;20385;-35
2022/04/01 05:50:35;;;;;;;1.13;0.40;;;;;;;;;;4972829;28;20062;-35
2022/04/01 05:53:01;;;;;;;0.20;0.20;;;;;;;;;;4973163;28;20057;-35
2022/04/01 05:55:26;;;;;;;2.15;0.68;;;;;;;;;;4972791;28;20037;-35
2022/04/01 05:57:54;;;;;;;0.30;0.20;;;;;;;;;;4972838;28;20027;-35
2022/04/01 06:00:21;;;;;;;0.28;0.28;;;;;;;;;;4972057;28;20038;-35
2022/04/01 06:03:06;;;;;;;0.25;0.22;;;;;;;;;;4972769;28;20081;-34
2022/04/01 06:05:54;;;;;;;0.85;0.30;;;;;;;;;;4956498;28;20141;-35
2022/04/01 06:08:44;;;;;;;0.30;0.30;;;;;;;;;;4972595;28;20088;-35
2022/04/01 06:11:29;;;;;;;1.85;0.20;;;;;;;;;;4971562;28;20170;-35
2022/04/01 06:14:13;;;;;;;0.50;0.30;;;;;;;;;;4974083;28;20792;-35
2022/04/01 06:17:00;;;;;;;0.57;0.52;;;;;;;;;;4973776;28;20693;-35
2022/04/01 06:19:45;;;;;;;0.30;0.30;;;;;;;;;;4973527;28;20023;-35
2022/04/01 06:22:15;;;;;;;0.47;0.38;;;;;;;;;;4972287;28;20035;-35
2022/04/01 06:24:49;;;;;;;0.20;0.20;;;;;;;;;;4972251;28;20050;-35
2022/04/01 06:27:25;;;;;;;0.60;0.40;;;;;;;;;;4972294;28;20524;-35
2022/04/01 06:30:02;;;;;;;2.88;0.30;;;;;;;;;;4972097;28;20031;-35
2022/04/01 06:32:46;;;;;;;0.40;0.40;;;;;;;;;;4972135;28;20034;-35
2022/04/01 06:35:18;;;;;;;0.57;0.57;;;;;;;;;;4971979;28;20030;-35
2022/04/01 06:38:05;;;;;;;0.73;0.52;;;;;;;;;;4973672;28;20117;-35
2022/04/01 06:40:40;;;;;;;5.70;3.10;;;;;;;;;;4971920;28;20097;-35
2022/04/01 06:43:06;;;;;;;8.75;2.47;;;;;;;;;;4971745;28;20051;-35
2022/04/01 06:45:50;;;;;;;4.43;3.55;;;;;;;;;;4973276;28;20049;-35
2022/04/01 06:48:45;;;;;;;4.47;2.50;;;;;;;;;;4972599;28;20042;-35
2022/04/01 06:51:30;;;;;;;1.48;1.30;;;;;;;;;;4973300;28;20077;-34
2022/04/01 06:54:14;;;;;;;1.92;1.15;;;;;;;;;;4973401;28;20061;-35
2022/04/01 06:56:58;;;;;;;1.45;1.15;;;;;;;;;;4973091;28;20136;-35
2022/04/01 06:59:25;;;;;;;3.80;0.80;;;;;;;;;;4955663;28;20038;-36
2022/04/01 07:01:51;;;;;;;0.90;0.60;;;;;;;;;;4973278;28;20023;-35
2022/04/01 07:04:17;;;;;;;1.10;0.70;;;;;;;;;;4972836;28;20026;-35
2022/04/01 07:06:42;;;;;;;2.03;1.00;;;;;;;;;;4972813;28;20086;-35
2022/04/01 07:09:08;;;;;;;1.77;1.17;;;;;;;;;;4972902;28;20437;-35
2022/04/01 07:11:34;;;;;;;0.80;0.77;;;;;;;;;;4971854;28;20029;-36
2022/04/01 07:14:00;;;;;;;0.82;0.82;;;;;;;;;;4972833;28;20023;-36
2022/04/01 07:16:25;;;;;;;1.88;1.00;;;;;;;;;;4972698;28;20023;-35
2022/04/01 07:18:50;;;;;;;1.00;0.85;;;;;;;;;;4972978;28;20027;-35
2022/04/01 07:21:16;;;;;;;1.05;0.65;;;;;;;;;;4972933;28;20030;-36
2022/04/01 07:23:42;;;;;;;0.50;0.50;;;;;;;;;;4972960;28;20039;-35
2022/04/01 07:26:08;;;;;;;0.90;0.70;;;;;;;;;;4972762;28;20022;-35
2022/04/01 07:28:34;;;;;;;6.57;0.80;;;;;;;;;;4972824;28;20389;-35
2022/04/01 07:32:28;;;;;;;0.68;0.35;;;;;;;;;;4972658;28;20031;-35
2022/04/01 07:33:45;;;;;;;0.73;0.60;;;;;;;;;;4972611;28;20027;-35
2022/04/01 07:36:10;;;;;;;4.63;0.80;;;;;;;;;;4972571;28;20479;-35
2022/04/01 07:38:39;;;;;;;2.50;0.82;;;;;;;;;;4972548;28;20035;-35
2022/04/01 07:41:04;;;;;;;1.05;0.73;;;;;;;;;;4972486;28;20110;-35
2022/04/01 07:43:30;;;;;;;0.73;0.57;;;;;;;;;;4972324;28;20141;-35
2022/04/01 07:45:56;;;;;;;0.50;0.50;;;;;;;;;;4972648;28;20046;-35
2022/04/01 07:48:21;;;;;;;0.68;0.50;;;;;;;;;;4972652;28;20710;-35
2022/04/01 07:50:47;;;;;;;0.95;0.60;;;;;;;;;;4971192;28;20476;-35
2022/04/01 07:53:13;;;;;;;1.08;0.90;;;;;;;;;;4972467;28;20030;-35
2022/04/01 07:55:39;;;;;;;1.33;0.50;;;;;;;;;;4972390;28;20031;-35
2022/04/01 07:58:04;;;;;;;0.68;0.60;;;;;;;;;;4971258;28;20035;-35
2022/04/01 08:00:30;;;;;;;1.10;0.88;;;;;;;;;;4972211;28;20033;-35
2022/04/01 08:02:57;;;;;;;0.93;0.73;;;;;;;;;;4971325;28;20041;-35
2022/04/01 08:05:22;;;;;;;0.73;0.73;;;;;;;;;;4972157;28;20039;-34
2022/04/01 08:07:48;;;;;;;4.03;0.75;;;;;;;;;;4972345;28;20085;-35
2022/04/01 08:10:13;;;;;;;0.80;0.70;;;;;;;;;;4972327;28;20027;-35
2022/04/01 08:12:39;;;;;;;1.35;0.90;;;;;;;;;;4970984;28;20034;-35
2022/04/01 08:15:05;;;;;;;1.10;0.93;;;;;;;;;;4972140;28;20031;-35
2022/04/01 08:17:31;;;;;;;1.17;1.08;;;;;;;;;;4972132;28;20037;-35
2022/04/01 08:19:56;;;;;;;1.67;0.70;;;;;;;;;;4970865;28;20031;-35
2022/04/01 08:22:22;;;;;;;1.80;1.02;;;;;;;;;;4973303;28;20034;-35
2022/04/01 08:24:48;;;;;;;1.23;0.70;;;;;;;;;;4975753;28;20041;-35
2022/04/01 08:27:14;;;;;;;1.10;1.00;;;;;;;;;;4975831;28;20066;-35
2022/04/01 08:29:40;;;;;;;3.42;1.27;;;;;;;;;;4975540;28;20050;-35
2022/04/01 08:32:07;;;;;;;1.30;1.02;;;;;;;;;;4975688;28;20066;-35
2022/04/01 08:34:33;;;;;;;1.80;1.42;;;;;;;;;;4975832;28;20026;-35
2022/04/01 08:36:59;;;;;;;1.00;0.85;;;;;;;;;;4975532;28;20127;-35
2022/04/01 08:39:24;;;;;;;3.22;0.80;;;;;;;;;;4975706;28;20050;-35
2022/04/01 08:41:50;;;;;;;1.65;1.02;;;;;;;;;;4975530;28;20074;-35
2022/04/01 08:44:16;;;;;;;0.98;0.88;;;;;;;;;;4975367;28;20393;-35
2022/04/01 08:46:41;;;;;;;2.03;1.00;;;;;;;;;;4975627;28;20098;-35
2022/04/01 08:49:07;;;;;;;1.48;1.10;;;;;;;;;;4975280;28;20023;-35
2022/04/01 08:51:33;;;;;;;2.92;0.93;;;;;;;;;;4975208;28;20035;-35
2022/04/01 08:53:58;;;;;;;0.95;0.73;;;;;;;;;;4975255;28;20015;-35
2022/04/01 08:56:24;;;;;;;2.28;1.42;;;;;;;;;;4975152;28;20030;-35
2022/04/01 08:58:49;;;;;;;3.30;1.27;;;;;;;;;;4975388;28;20030;-35
2022/04/01 09:01:16;;;;;;;2.67;1.17;;;;;;;;;;4973937;28;20031;-35
2022/04/01 09:03:42;;;;;;;1.20;0.80;;;;;;;;;;4975045;28;20073;-35
2022/04/01 09:06:08;;;;;;;1.52;1.13;;;;;;;;;;4974958;28;20537;-35
2022/04/01 09:08:38;;;;;;;0.75;0.63;;;;;;;;;;4975214;28;20109;-35
2022/04/01 09:11:08;;;;;;;2.55;1.33;;;;;;;;;;4974844;28;20031;-34
2022/04/01 09:13:43;;;;;;;2.63;1.00;;;;;;;;;;4973624;28;20393;-34
2022/04/01 09:16:23;;;;;;;1.35;1.02;;;;;;;;;;4974888;28;20070;-35
2022/04/01 09:18:48;;;;;;;3.67;0.85;;;;;;;;;;4975319;28;20082;-35
2022/04/01 09:21:14;;;;;;;2.17;1.15;;;;;;;;;;4975007;28;20018;-35
2022/04/01 09:23:45;;;;;;;1.60;1.48;;;;;;;;;;4974926;28;20520;-34
2022/04/01 09:26:10;;;;;;;1.70;1.00;;;;;;;;;;4974664;28;20042;-35
2022/04/01 09:28:40;;;;;;;1.95;1.00;;;;;;;;;;4973382;28;20107;-35
2022/04/01 09:31:11;;;;;;;2.28;0.98;;;;;;;;;;4974576;28;20023;-35
2022/04/01 09:33:42;;;;;;;1.60;0.80;;;;;;;;;;4973651;28;20062;-38
2022/04/01 09:36:09;;;;;;;1.08;0.68;;;;;;;;;;4974525;28;20062;-35
2022/04/01 09:38:36;;;;;;;1.75;0.90;;;;;;;;;;4974443;28;20105;-35
2022/04/01 09:41:03;;;;;;;0.80;0.80;;;;;;;;;;4974376;28;20089;-35
2022/04/01 09:43:28;;;;;;;1.77;1.30;;;;;;;;;;4973996;28;20441;-35
2022/04/01 09:45:54;;;;;;;1.38;1.27;;;;;;;;;;4974221;28;20110;-35
2022/04/01 09:48:20;;;;;;;2.33;1.02;;;;;;;;;;4974102;28;20019;-35
2022/04/01 09:50:55;;;;;;;1.98;1.35;;;;;;;;;;4974014;28;20043;-35
2022/04/01 09:53:21;;;;;;;2.17;1.35;;;;;;;;;;4974163;28;20033;-35
2022/04/01 09:55:48;;;;;;;1.85;1.45;;;;;;;;;;4973985;28;20097;-35
2022/04/01 09:58:15;;;;;;;1.70;1.50;;;;;;;;;;4974069;28;20548;-35
2022/04/01 10:00:41;;;;;;;1.58;1.20;;;;;;;;;;4974160;28;20058;-35
2022/04/01 10:03:08;;;;;;;2.70;1.48;;;;;;;;;;4972622;28;20066;-35
2022/04/01 10:05:37;;;;;;;1.73;1.35;;;;;;;;;;4973763;28;20037;-35
2022/04/01 10:08:04;;;;;;;2.00;1.40;;;;;;;;;;4974084;28;20037;-35
2022/04/01 10:10:29;;;;;;;1.88;1.33;;;;;;;;;;4973697;28;20026;-35
2022/04/01 10:12:58;;;;;;;6.40;1.40;;;;;;;;;;4973786;28;20030;-35
2022/04/01 10:15:24;;;;;;;1.85;1.20;;;;;;;;;;4973859;28;20417;-35
2022/04/01 10:17:51;;;;;;;1.85;1.40;;;;;;;;;;4973938;28;20045;-35
2022/04/01 10:20:18;;;;;;;1.58;1.33;;;;;;;;;;4973591;28;20019;-34
2022/04/01 10:22:45;;;;;;;1.10;1.00;;;;;;;;;;4973757;28;20070;-35
2022/04/01 10:25:15;;;;;;;1.58;1.30;;;;;;;;;;4973416;28;20030;-34
2022/04/01 10:27:41;;;;;;;1.42;0.95;;;;;;;;;;4973473;28;20062;-35
2022/04/01 10:30:08;;;;;;;1.95;1.25;;;;;;;;;;4972055;28;20539;-35
2022/04/01 10:32:34;;;;;;;2.55;1.48;;;;;;;;;;4973280;28;20153;-35
2022/04/01 10:35:00;;;;;;;1.85;1.30;;;;;;;;;;4972112;28;20105;-35
2022/04/01 10:37:27;;;;;;;2.03;1.35;;;;;;;;;;4973254;28;20549;-35
2022/04/01 10:40:00;;;;;;;1.33;1.08;;;;;;;;;;4973231;28;20037;-35
2022/04/01 10:42:25;;;;;;;1.55;1.00;;;;;;;;;;4973117;28;20062;-35
2022/04/01 10:44:51;;;;;;;1.40;1.30;;;;;;;;;;4972026;28;20043;-35
2022/04/01 10:47:17;;;;;;;1.75;1.38;;;;;;;;;;4973177;28;20026;-35
2022/04/01 10:52:29;;;;;;;3.95;2.42;;;;;;;;;;4973249;28;20033;-35
2022/04/01 10:55:09;;;;;;;5.25;1.98;;;;;;;;;;4972953;28;20031;-34
2022/04/01 10:57:42;;;;;;;2.45;1.45;;;;;;;;;;4972899;28;20089;-35
2022/04/01 11:00:08;;;;;;;;;;;;;;;;;;4973401;28;20337;-35
2022/04/01 11:02:34;;;;;;;3.97;1.55;;;;;;;;;;4972893;28;19941;-35
2022/04/01 11:05:00;;;;;;;1.65;1.10;;;;;;;;;;4973081;28;20041;-35
2022/04/01 11:07:25;;;;;;;1.95;1.30;;;;;;;;;;4972771;28;20015;-34
2022/04/01 11:09:55;;;;;;;2.67;1.38;;;;;;;;;;4972812;28;20030;-35
2022/04/01 11:12:25;;;;;;;2.88;1.40;;;;;;;;;;4972775;28;20469;-35
2022/04/01 11:14:53;;;;;;;4.85;1.80;;;;;;;;;;4972775;28;20158;-34
2022/04/01 11:17:19;;;;;;;1.90;1.52;;;;;;;;;;4973019;28;20026;-35
2022/04/01 11:20:05;;;;;;;4.15;1.40;;;;;;;;;;4972532;28;20370;-36
2022/04/01 11:22:35;;;;;;;3.55;2.00;;;;;;;;;;4972873;28;20121;-35
2022/04/01 11:25:01;;;;;;;2.85;1.70;;;;;;;;;;4972825;28;20389;-35
2022/04/01 11:27:26;;;;;;;2.58;2.05;;;;;;;;;;4972481;28;20077;-35
2022/04/01 11:30:08;;;;;;;2.67;2.33;;;;;;;;;;4972809;28;20465;-35
2022/04/01 11:32:35;;;;;;;3.75;2.40;;;;;;;;;;4972468;28;20054;-35
2022/04/01 11:35:00;;;;;;;4.03;2.40;;;;;;;;;;4972532;28;20521;-35
2022/04/01 11:37:26;;;;;;;3.45;2.15;;;;;;;;;;4972749;28;20174;-35
2022/04/01 11:39:52;;;;;;;4.00;2.05;;;;;;;;;;4972486;28;20030;-35
2022/04/01 11:42:18;;;;;;;6.80;2.63;;;;;;;;;;4972243;28;20054;-35
2022/04/01 11:44:54;;;;;;;4.22;2.55;;;;;;;;;;4971331;28;20058;-35
2022/04/01 11:47:32;;;;;;;3.30;1.65;;;;;;;;;;4972482;28;20031;-35
2022/04/01 11:50:07;;;;;;;2.85;1.73;;;;;;;;;;4972332;28;20026;-35
2022/04/01 11:52:40;;;;;;;2.25;1.55;;;;;;;;;;4972297;28;20153;-35
2022/04/01 11:55:12;;;;;;;4.40;2.33;;;;;;;;;;4972366;28;20118;-35
2022/04/01 11:57:38;;;;;;;4.25;2.85;;;;;;;;;;4973697;28;20034;-35
2022/04/01 12:00:11;;;;;;;3.72;2.03;;;;;;;;;;4976152;28;20034;-35
2022/04/01 12:02:37;;;;;;;5.20;2.13;;;;;;;;;;4976333;28;20504;-35
2022/04/01 12:05:03;;;;;;;2.35;1.80;;;;;;;;;;4975990;28;20046;-35
2022/04/01 12:10:17;;;;;;;2.97;1.88;;;;;;;;;;4975914;28;20089;-35
2022/04/01 12:12:51;;;;;;;5.93;2.60;;;;;;;;;;4974715;28;20026;-36
2022/04/01 12:15:17;;;;;;;5.25;2.67;;;;;;;;;;4975964;28;20022;-35
2022/04/01 12:17:49;;;;;;;3.63;2.70;;;;;;;;;;4975782;28;20038;-36
2022/04/01 12:20:15;;;;;;;6.40;3.15;;;;;;;;;;4976048;28;20466;-35
2022/04/01 12:22:41;;;;;;;7.65;3.75;;;;;;;;;;4975781;28;20508;-35
2022/04/01 12:25:07;;;;;;;6.82;3.95;;;;;;;;;;4975863;28;20039;-35
2022/04/01 12:27:33;;;;;;;7.55;3.58;;;;;;;;;;4974354;28;20035;-35
2022/04/01 12:29:59;;;;;;;6.40;3.83;;;;;;;;;;4974741;28;20381;-35
2022/04/01 12:32:25;;;;;;;4.85;2.92;;;;;;;;;;4975456;28;20026;-35
2022/04/01 12:34:51;;;;;;;6.57;3.50;;;;;;;;;;4975540;28;20023;-35
2022/04/01 12:37:17;;;;;;;5.80;3.88;;;;;;;;;;4975862;28;20029;-35
2022/04/01 12:39:45;;;;;;;5.63;3.38;;;;;;;;;;4969165;28;20474;-34
2022/04/01 12:42:13;;;;;;;7.00;4.00;;;;;;;;;;4956003;28;20482;-35
2022/04/01 12:44:40;;;;;;;4.53;2.90;;;;;;;;;;4955959;28;20397;-35
2022/04/01 12:47:06;;;;;;;3.70;2.65;;;;;;;;;;4956274;28;20059;-35
2022/04/01 12:49:33;;;;;;;5.90;3.45;;;;;;;;;;4955925;28;20452;-35
2022/04/01 12:52:01;;;;;;;3.50;2.50;;;;;;;;;;4955914;28;20057;-35
2022/04/01 12:54:34;;;;;;;4.85;2.70;;;;;;;;;;4955839;28;20027;-35
2022/04/01 12:57:05;;;;;;;7.53;3.20;;;;;;;;;;4955915;28;20035;-35
2022/04/01 12:59:37;;;;;;;6.32;3.25;;;;;;;;;;4955701;28;20031;-35
2022/04/01 13:02:05;;;;;;;4.60;2.58;;;;;;;;;;4955833;28;20027;-35
2022/04/01 13:04:37;;;;;;;3.20;2.53;;;;;;;;;;4955690;28;20039;-35
2022/04/01 13:07:09;;;;;;;3.85;2.30;;;;;;;;;;4955681;28;20085;-35
2022/04/01 13:09:43;;;;;;;6.37;3.10;;;;;;;;;;4954299;28;20180;-35
2022/04/01 13:12:09;;;;;;;5.22;3.03;;;;;;;;;;4955646;28;20102;-35
2022/04/01 13:14:35;;;;;;;5.50;3.10;;;;;;;;;;4955534;28;20114;-35
2022/04/01 13:17:00;;;;;;;7.57;2.67;;;;;;;;;;4955755;28;20110;-35
2022/04/01 13:19:26;;;;;;;4.57;2.35;;;;;;;;;;4955398;28;20019;-35
2022/04/01 13:21:57;;;;;;;6.57;2.85;;;;;;;;;;4955676;28;20066;-35
2022/04/01 13:24:27;;;;;;;4.32;2.65;;;;;;;;;;4955336;28;20501;-37
2022/04/01 13:26:58;;;;;;;3.83;2.08;;;;;;;;;;4955366;29;20035;-35
2022/04/01 13:29:24;;;;;;;6.85;2.15;;;;;;;;;;4955545;28;20078;-34
2022/04/01 13:31:50;;;;;;;6.30;2.40;;;;;;;;;;4955230;28;20114;-35
2022/04/01 13:34:19;;;;;;;5.43;2.95;;;;;;;;;;4955257;28;20446;-35
2022/04/01 13:36:49;;;;;;;4.18;2.70;;;;;;;;;;4955005;28;20028;-35
2022/04/01 13:39:17;;;;;;;7.65;2.63;;;;;;;;;;4955116;28;20030;-35
2022/04/01 13:41:43;;;;;;;6.20;3.13;;;;;;;;;;4954764;28;20027;-36
2022/04/01 13:44:12;;;;;;;7.43;3.13;;;;;;;;;;4955058;28;20039;-35
2022/04/01 13:46:38;;;;;;;4.50;2.58;;;;;;;;;;4969713;28;20097;-35
2022/04/01 13:49:07;;;;;;;3.70;2.25;;;;;;;;;;4955141;28;20031;-35
2022/04/01 13:51:34;;;;;;;4.88;2.35;;;;;;;;;;4954823;28;20029;-35
2022/04/01 13:54:04;;;;;;;5.57;3.20;;;;;;;;;;4954897;28;20474;-35
2022/04/01 13:56:31;;;;;;;4.90;3.08;;;;;;;;;;4954726;28;20059;-42
2022/04/01 13:58:57;;;;;;;4.57;2.95;;;;;;;;;;4954664;28;20031;-36
2022/04/01 14:01:26;;;;;;;3.05;2.15;;;;;;;;;;4954818;28;20441;-35
2022/04/01 14:03:53;;;;;;;3.83;2.47;;;;;;;;;;4954719;28;20465;-35
2022/04/01 14:06:23;;;;;;;4.40;2.40;;;;;;;;;;4954580;28;20098;-35
2022/04/01 14:08:56;;;;;;;5.10;2.08;;;;;;;;;;4969365;28;20035;-35
2022/04/01 14:11:22;;;;;;;3.03;1.75;;;;;;;;;;4954463;28;20031;-35
2022/04/01 14:13:51;;;;;;;6.18;2.75;;;;;;;;;;4954463;28;20015;-35
2022/04/01 14:16:17;;;;;;;6.90;3.83;;;;;;;;;;4969262;28;20616;-35
2022/04/01 14:18:50;;;;;;;3.85;2.08;;;;;;;;;;4954217;28;20019;-35
2022/04/01 14:21:16;;;;;;;6.88;2.08;;;;;;;;;;4953934;28;20035;-35
2022/04/01 14:23:51;;;;;;;3.17;2.20;;;;;;;;;;4954273;29;20025;-35
2022/04/01 14:26:20;;;;;;;5.38;2.30;;;;;;;;;;4954123;28;20070;-35
2022/04/01 14:28:55;;;;;;;3.90;2.63;;;;;;;;;;4954041;28;20066;-35
2022/04/01 14:31:21;;;;;;;3.28;2.70;;;;;;;;;;4954480;28;20039;-35
2022/04/01 14:33:48;;;;;;;5.53;2.92;;;;;;;;;;4954061;28;20059;-35
2022/04/01 14:36:18;;;;;;;3.28;2.08;;;;;;;;;;4954082;28;20110;-35
2022/04/01 14:38:44;;;;;;;4.18;1.90;;;;;;;;;;4954105;28;20054;-35
2022/04/01 14:41:12;;;;;;;2.67;1.65;;;;;;;;;;4954029;28;20032;-35
2022/04/01 14:43:38;;;;;;;5.28;2.33;;;;;;;;;;4953687;28;20059;-36
2022/04/01 14:46:07;;;;;;;4.88;2.22;;;;;;;;;;4953935;28;20043;-35
2022/04/01 14:48:34;;;;;;;5.55;1.88;;;;;;;;;;4953804;28;20037;-35
2022/04/01 14:50:59;;;;;;;3.25;2.08;;;;;;;;;;4953857;28;20039;-35
2022/04/01 14:53:26;;;;;;;2.42;2.00;;;;;;;;;;4953808;28;20026;-35
2022/04/01 14:55:51;;;;;;;5.07;2.30;;;;;;;;;;4953950;28;20027;-36
2022/04/01 14:58:17;;;;;;;6.25;2.38;;;;;;;;;;4953793;28;20469;-35
2022/04/01 15:00:45;;;;;;;4.22;2.25;;;;;;;;;;4968299;28;20070;-35
2022/04/01 15:03:11;;;;;;;8.82;2.63;;;;;;;;;;4953714;28;20016;-35
2022/04/01 15:05:39;;;;;;;3.53;2.30;;;;;;;;;;4968348;28;20567;-35
2022/04/01 15:08:06;;;;;;;4.43;2.80;;;;;;;;;;4953574;28;20054;-36